createdAt,value
2022-12-11T00:00:25.010Z,99.90
2022-12-11T00:02:51.619Z,99.90
2022-12-11T00:05:18.413Z,99.90
2022-12-11T00:07:45.028Z,99.90
2022-12-11T00:10:11.736Z,99.90
2022-12-11T00:12:38.624Z,99.90
2022-12-11T00:15:05.670Z,99.90
2022-12-11T00:17:32.295Z,99.90
2022-12-11T00:19:58.955Z,99.90
2022-12-11T00:22:25.597Z,99.90
2022-12-11T00:24:52.254Z,99.90
2022-12-11T00:27:18.957Z,99.90
2022-12-11T00:29:45.615Z,99.90
2022-12-11T05:31:47.782Z,99.90
2022-12-11T05:34:15.889Z,99.90
2022-12-11T05:36:42.567Z,99.90
2022-12-11T05:39:11.424Z,99.90
2022-12-11T05:41:38.226Z,99.90
2022-12-11T05:44:05.051Z,99.90
2022-12-11T05:46:31.830Z,99.90
2022-12-11T05:49:01.304Z,99.90
2022-12-11T05:51:29.071Z,99.90
2022-12-11T05:53:56.814Z,99.90
2022-12-11T05:56:27.124Z,99.90
2022-12-11T05:58:54.826Z,99.90
2022-12-11T06:01:27.296Z,99.90
2022-12-11T06:03:55.533Z,99.90
2022-12-11T06:06:23.400Z,99.90
2022-12-11T06:08:51.833Z,99.90
2022-12-11T06:11:23.729Z,99.90
2022-12-11T06:13:50.671Z,99.90
2022-12-11T06:16:20.981Z,99.90
2022-12-11T06:18:47.688Z,99.90
2022-12-11T06:21:23.662Z,99.90
2022-12-11T06:23:52.519Z,99.90
2022-12-11T06:26:19.665Z,99.90
2022-12-11T06:28:46.791Z,99.90
2022-12-11T06:31:14.080Z,99.90
2022-12-11T06:33:43.196Z,99.90
2022-12-11T06:36:16.483Z,99.90
2022-12-11T06:38:43.581Z,99.90
2022-12-11T06:41:10.584Z,99.90
2022-12-11T06:43:38.797Z,99.90
2022-12-11T06:46:06.402Z,99.90
2022-12-11T06:48:33.418Z,99.90
2022-12-11T06:51:00.138Z,99.90
2022-12-11T06:53:26.786Z,99.90
2022-12-11T06:55:53.445Z,99.90
2022-12-11T06:58:20.172Z,99.90
2022-12-11T07:00:46.898Z,99.90
2022-12-11T07:03:13.717Z,99.90
2022-12-11T07:05:40.445Z,99.90
2022-12-11T07:08:07.391Z,99.90
2022-12-11T07:10:34.301Z,99.90
2022-12-11T07:13:00.927Z,99.90
2022-12-11T07:15:27.526Z,99.90
2022-12-11T07:17:54.175Z,99.90
2022-12-11T07:20:20.836Z,99.90
2022-12-11T07:22:47.460Z,99.90
2022-12-11T07:25:14.462Z,99.90
2022-12-11T07:27:41.625Z,99.90
2022-12-11T07:30:09.172Z,99.90
2022-12-11T07:32:35.866Z,99.90
2022-12-11T07:35:02.866Z,99.90
2022-12-11T07:37:29.475Z,99.90
2022-12-11T07:39:56.047Z,99.90
2022-12-11T07:42:22.700Z,99.90
2022-12-11T07:44:49.729Z,99.90
2022-12-11T07:47:16.397Z,99.90
2022-12-11T07:49:42.991Z,99.90
2022-12-11T07:52:10.090Z,99.90
2022-12-11T07:54:36.812Z,99.90
2022-12-11T07:57:03.509Z,99.90
2022-12-11T07:59:30.155Z,99.90
2022-12-11T08:01:56.786Z,99.90
2022-12-11T08:04:23.415Z,99.90
2022-12-11T08:06:49.995Z,99.90
2022-12-11T08:09:21.087Z,99.90
2022-12-11T08:11:52.017Z,99.90
2022-12-11T08:14:19.491Z,99.90
2022-12-11T08:16:46.299Z,99.90
2022-12-11T08:19:13.626Z,99.90
2022-12-11T08:21:41.083Z,99.90
2022-12-11T08:24:08.790Z,99.90
2022-12-11T08:26:35.426Z,99.90
2022-12-11T08:29:02.781Z,99.90
2022-12-11T08:31:29.869Z,99.90
2022-12-11T08:33:56.854Z,99.90
2022-12-11T08:36:24.445Z,99.90
2022-12-11T08:38:51.692Z,99.90
2022-12-11T08:41:24.355Z,99.60
2022-12-11T08:43:55.123Z,97.60
2022-12-11T08:46:24.018Z,96.20
2022-12-11T08:48:51.423Z,94.80
2022-12-11T08:51:24.251Z,91.80
2022-12-11T08:53:51.619Z,88.50
2022-12-11T08:56:20.495Z,82.30
2022-12-11T08:58:47.744Z,83.30
2022-12-11T09:01:18.025Z,78.60
2022-12-11T09:03:45.020Z,75.70
2022-12-11T09:06:15.034Z,69.80
2022-12-11T09:08:47.286Z,65.00
2022-12-11T09:11:25.662Z,61.40
2022-12-11T09:13:52.786Z,60.00
2022-12-11T09:16:21.550Z,59.80
2022-12-11T09:18:50.372Z,58.60
2022-12-11T09:21:19.991Z,56.60
2022-12-11T09:23:47.409Z,56.50
2022-12-11T09:26:16.815Z,54.40
2022-12-11T09:28:46.588Z,53.50
2022-12-11T09:31:13.698Z,54.40
2022-12-11T09:33:40.626Z,52.80
2022-12-11T09:36:07.764Z,51.20
2022-12-11T09:38:36.342Z,51.40
2022-12-11T09:41:35.849Z,52.00
2022-12-11T09:44:14.483Z,50.80
2022-12-11T09:46:42.324Z,49.90
2022-12-11T09:49:34.155Z,47.80
2022-12-11T09:52:33.044Z,47.40
2022-12-11T09:55:03.306Z,45.80
2022-12-11T09:57:37.690Z,44.20
2022-12-11T10:00:11.378Z,43.70
2022-12-11T10:02:38.137Z,42.50
2022-12-11T10:05:26.498Z,41.70
2022-12-11T10:08:08.797Z,41.10
2022-12-11T10:10:54.204Z,40.80
2022-12-11T10:13:55.865Z,42.90
2022-12-11T10:16:34.664Z,45.30
2022-12-11T10:19:01.598Z,47.20
2022-12-11T10:21:36.418Z,50.90
2022-12-11T10:24:05.865Z,49.50
2022-12-11T10:26:32.573Z,48.10
2022-12-11T10:29:00.802Z,47.10
2022-12-11T10:31:46.124Z,45.60
2022-12-11T10:34:18.663Z,45.60
2022-12-11T10:36:45.366Z,44.80
2022-12-11T10:39:22.508Z,45.70
2022-12-11T10:41:50.958Z,47.00
2022-12-11T10:44:21.716Z,46.70
2022-12-11T10:47:02.348Z,48.00
2022-12-11T10:49:33.145Z,49.60
2022-12-11T10:52:02.874Z,49.10
2022-12-11T10:54:33.676Z,48.20
2022-12-11T10:57:02.136Z,48.90
2022-12-11T10:59:47.665Z,49.10
2022-12-11T11:02:26.143Z,49.80
2022-12-11T11:04:55.085Z,50.10
2022-12-11T11:07:30.295Z,49.80
2022-12-11T11:10:12.196Z,48.50
2022-12-11T11:12:42.039Z,46.90
2022-12-11T11:15:34.808Z,47.00
2022-12-11T11:18:11.144Z,47.00
2022-12-11T11:20:46.691Z,48.00
2022-12-11T11:23:16.385Z,48.40
2022-12-11T11:26:02.493Z,47.10
2022-12-11T11:28:42.673Z,46.50
2022-12-11T11:31:14.461Z,46.10
2022-12-11T11:34:12.891Z,46.30
2022-12-11T11:36:39.715Z,47.60
2022-12-11T11:39:37.453Z,48.80
2022-12-11T11:42:06.871Z,49.80
2022-12-11T11:44:46.847Z,51.10
2022-12-11T11:47:22.891Z,49.80
2022-12-11T11:50:11.707Z,49.70
2022-12-11T11:52:46.502Z,49.60
2022-12-11T11:55:22.664Z,49.70
2022-12-11T11:58:08.513Z,50.90
2022-12-11T12:00:35.236Z,51.00
2022-12-11T12:03:09.506Z,52.10
2022-12-11T12:05:41.748Z,53.70
2022-12-11T12:08:24.389Z,53.60
2022-12-11T12:11:11.864Z,55.30
2022-12-11T12:14:17.582Z,55.40
2022-12-11T12:17:04.891Z,57.10
2022-12-11T12:19:43.279Z,59.00
2022-12-11T12:22:28.775Z,58.90
2022-12-11T12:25:10.707Z,59.00
2022-12-11T12:28:07.558Z,60.70
2022-12-11T12:30:58.086Z,62.60
2022-12-11T12:33:38.508Z,64.20
2022-12-11T12:36:17.061Z,66.80
2022-12-11T12:38:55.021Z,68.00
2022-12-11T12:41:44.702Z,68.60
2022-12-11T12:44:21.726Z,71.20
2022-12-11T12:46:59.923Z,73.30
2022-12-11T12:49:40.756Z,74.80
2022-12-11T12:52:15.191Z,76.10
2022-12-11T12:55:05.457Z,77.50
2022-12-11T12:57:33.777Z,78.00
2022-12-11T13:00:00.493Z,78.90
2022-12-11T13:02:27.687Z,79.20
2022-12-11T13:05:07.537Z,79.70
2022-12-11T13:07:34.310Z,81.70
2022-12-11T13:10:07.674Z,80.80
2022-12-11T13:12:43.519Z,81.30
2022-12-11T13:15:31.373Z,80.70
2022-12-11T13:17:59.193Z,80.50
2022-12-11T13:20:28.662Z,80.50
2022-12-11T13:23:07.386Z,81.20
2022-12-11T13:25:58.523Z,81.80
2022-12-11T13:28:27.246Z,82.50
2022-12-11T13:31:17.548Z,82.90
2022-12-11T13:33:48.904Z,82.30
2022-12-11T13:36:24.131Z,82.00
2022-12-11T13:38:55.740Z,81.60
2022-12-11T13:41:23.571Z,82.30
2022-12-11T13:43:51.493Z,83.10
2022-12-11T13:46:31.875Z,84.20
2022-12-11T13:49:02.289Z,85.00
2022-12-11T13:51:31.454Z,85.70
2022-12-11T13:54:05.038Z,86.80
2022-12-11T13:56:31.699Z,87.30
2022-12-11T13:58:58.577Z,88.70
2022-12-11T14:01:29.091Z,89.40
2022-12-11T14:03:58.909Z,90.00
2022-12-11T14:06:28.381Z,90.50
2022-12-11T14:08:58.708Z,91.10
2022-12-11T14:11:29.993Z,91.50
2022-12-11T14:14:00.054Z,92.20
2022-12-11T14:16:27.736Z,93.10
2022-12-11T14:18:57.620Z,94.20
2022-12-11T14:21:25.722Z,95.80
2022-12-11T14:24:00.916Z,98.10
2022-12-11T14:26:30.233Z,99.90
2022-12-11T14:28:57.196Z,99.90
2022-12-11T14:31:31.484Z,99.90
2022-12-11T14:34:03.703Z,99.90
2022-12-11T14:36:31.708Z,99.90
2022-12-11T14:39:05.310Z,99.90
2022-12-11T14:41:53.640Z,99.90
2022-12-11T14:44:23.703Z,99.90
2022-12-11T14:46:57.946Z,99.90
2022-12-11T14:49:58.800Z,99.90
2022-12-11T14:52:47.197Z,99.90
2022-12-11T14:55:21.885Z,99.90
2022-12-11T14:57:52.588Z,99.90
2022-12-11T15:00:31.906Z,99.90
2022-12-11T15:03:22.548Z,99.90
2022-12-11T15:05:58.488Z,99.90
2022-12-11T15:08:34.153Z,99.90
2022-12-11T15:11:10.381Z,99.90
2022-12-11T15:13:58.542Z,99.90
2022-12-11T15:16:27.702Z,99.90
2022-12-11T15:18:56.421Z,99.90
2022-12-11T15:21:35.428Z,99.90
2022-12-11T15:24:06.949Z,99.90
2022-12-11T15:27:01.219Z,99.90
2022-12-11T15:29:35.280Z,99.90
2022-12-11T15:32:09.246Z,99.90
2022-12-11T15:34:43.881Z,99.90
2022-12-11T15:37:32.535Z,99.90
2022-12-11T15:40:01.947Z,99.90
2022-12-11T15:42:34.788Z,99.90
2022-12-11T15:45:02.751Z,99.90
2022-12-11T15:47:30.960Z,99.90
2022-12-11T15:50:00.636Z,99.90
2022-12-11T15:52:27.385Z,99.90
2022-12-11T15:54:54.146Z,99.90
2022-12-11T15:57:23.718Z,99.90
2022-12-11T15:59:52.883Z,99.90
2022-12-11T16:02:19.880Z,99.90
2022-12-11T16:04:46.538Z,99.90
2022-12-11T16:07:17.719Z,99.90
2022-12-11T16:09:45.498Z,99.90
2022-12-11T16:12:13.776Z,99.90
2022-12-11T16:14:41.484Z,99.90
2022-12-11T16:17:09.990Z,99.90
2022-12-11T16:19:37.508Z,99.90
2022-12-11T16:22:04.731Z,99.90
2022-12-11T16:24:31.946Z,99.90
2022-12-11T16:26:58.650Z,99.90
2022-12-11T16:29:25.234Z,99.90
2022-12-11T16:31:51.905Z,99.90
2022-12-11T16:34:19.050Z,99.90
2022-12-11T16:36:45.703Z,99.90
2022-12-11T16:39:12.598Z,99.90
2022-12-11T16:41:39.467Z,99.90
2022-12-11T16:44:06.645Z,99.90
2022-12-11T16:46:33.434Z,99.90
2022-12-11T16:49:00.136Z,99.90
2022-12-11T16:51:26.943Z,99.90
2022-12-11T16:53:53.636Z,99.90
2022-12-11T16:56:20.499Z,99.90
2022-12-11T16:58:47.686Z,99.90
2022-12-11T17:01:15.517Z,99.90
2022-12-11T17:03:43.604Z,99.90
2022-12-11T17:06:12.276Z,99.90
2022-12-11T17:08:39.616Z,99.90
2022-12-11T17:11:07.905Z,99.90
2022-12-11T17:13:36.441Z,99.90
2022-12-11T17:16:14.951Z,99.90
2022-12-11T17:18:42.910Z,99.90
2022-12-11T17:21:15.558Z,99.90
2022-12-11T17:23:42.240Z,99.90
2022-12-11T17:26:09.483Z,99.90
2022-12-11T17:28:37.460Z,99.90
2022-12-11T17:31:09.253Z,99.90
2022-12-11T17:33:35.969Z,99.90
2022-12-11T17:36:05.226Z,99.90
2022-12-11T17:38:31.885Z,99.90
2022-12-11T17:40:58.691Z,99.90
2022-12-11T17:43:25.683Z,99.90
2022-12-11T17:45:52.794Z,99.90
2022-12-11T17:48:22.247Z,99.90
2022-12-11T17:50:50.436Z,99.90
2022-12-11T17:53:18.300Z,99.90
2022-12-11T17:55:46.133Z,99.90
2022-12-11T17:58:23.258Z,99.90
2022-12-11T18:00:54.102Z,99.90
2022-12-11T18:03:21.396Z,99.90
2022-12-11T18:05:50.932Z,99.90
2022-12-11T18:08:25.883Z,99.90
2022-12-11T18:10:54.254Z,99.90
2022-12-11T18:13:21.945Z,99.90
2022-12-11T18:16:00.944Z,99.90
2022-12-11T18:18:27.673Z,99.90
2022-12-11T18:20:54.320Z,99.90
2022-12-11T18:23:21.041Z,99.90
2022-12-11T18:25:47.668Z,99.90
2022-12-11T18:28:14.528Z,99.90
2022-12-11T18:30:41.229Z,99.90
2022-12-11T18:33:07.859Z,99.90
2022-12-11T18:35:34.614Z,99.90
2022-12-11T18:38:01.304Z,99.90
2022-12-11T18:40:28.784Z,99.90
2022-12-11T18:42:55.744Z,99.90
2022-12-11T18:45:22.349Z,99.90
2022-12-11T18:47:51.924Z,99.90
2022-12-11T18:50:18.825Z,99.90
2022-12-11T18:52:45.444Z,99.90
2022-12-11T18:55:12.487Z,99.90
2022-12-11T18:57:39.591Z,99.90
2022-12-11T19:00:07.393Z,99.90
2022-12-11T19:02:35.400Z,99.90
2022-12-11T19:05:02.531Z,99.90
2022-12-11T19:07:29.330Z,99.90
2022-12-11T19:09:55.902Z,99.90
2022-12-11T19:12:22.661Z,99.90
2022-12-11T19:14:49.298Z,99.90
2022-12-11T19:17:15.917Z,99.90
2022-12-11T19:19:44.862Z,99.90
2022-12-11T19:22:11.664Z,99.90
2022-12-11T19:24:38.313Z,99.90
2022-12-11T19:27:09.972Z,99.90
2022-12-11T19:29:39.847Z,99.90
2022-12-11T19:32:06.613Z,99.90
2022-12-11T19:34:33.308Z,99.90
2022-12-11T19:37:00.114Z,99.90
2022-12-11T19:39:26.828Z,99.90
2022-12-11T19:41:53.465Z,99.90
2022-12-11T19:44:20.073Z,99.90
2022-12-11T19:46:46.744Z,99.90
2022-12-11T19:49:13.440Z,99.90
2022-12-11T19:51:41.670Z,99.90
2022-12-11T19:54:11.363Z,99.90
2022-12-11T19:56:38.524Z,99.90
2022-12-11T19:59:08.333Z,99.90
2022-12-11T20:01:37.008Z,99.90
2022-12-11T20:04:10.539Z,99.90
2022-12-11T20:06:38.362Z,99.90
2022-12-11T20:09:07.372Z,99.90
2022-12-11T20:11:34.287Z,99.90
2022-12-11T20:14:01.019Z,99.90
2022-12-11T20:16:53.702Z,99.90
2022-12-11T20:19:15.403Z,99.90
2022-12-11T20:21:42.482Z,99.90
2022-12-11T20:24:10.245Z,99.90
2022-12-11T20:26:38.058Z,99.90
2022-12-11T20:29:08.073Z,99.90
2022-12-11T20:31:35.858Z,99.90
2022-12-11T20:34:02.932Z,99.90
2022-12-11T20:36:29.856Z,99.90
2022-12-11T20:38:56.542Z,99.90
2022-12-11T20:41:24.985Z,99.90
2022-12-11T20:43:54.573Z,99.90
2022-12-11T20:46:24.818Z,99.90
2022-12-11T20:48:51.961Z,99.90
2022-12-11T20:51:25.784Z,99.90
2022-12-11T20:53:58.615Z,99.90
2022-12-11T20:56:28.023Z,99.90
2022-12-11T20:58:54.923Z,99.90
2022-12-11T21:01:26.722Z,99.90
2022-12-11T21:03:53.548Z,99.90
2022-12-11T21:06:23.085Z,99.90
2022-12-11T21:08:49.765Z,99.90
2022-12-11T21:11:16.406Z,99.90
2022-12-11T21:13:43.131Z,99.90
2022-12-11T21:16:10.873Z,99.90
2022-12-11T21:18:38.585Z,99.90
2022-12-11T21:21:06.208Z,99.90
2022-12-11T21:23:33.630Z,99.90
2022-12-11T21:26:00.245Z,99.90
2022-12-11T21:28:30.580Z,99.90
2022-12-11T21:31:13.119Z,99.90
2022-12-11T21:33:39.854Z,99.90
2022-12-11T21:36:09.137Z,99.90
2022-12-11T21:38:35.735Z,99.90
2022-12-11T21:41:14.525Z,99.90
2022-12-11T21:44:00.503Z,99.90
2022-12-11T21:46:29.770Z,99.90
2022-12-11T21:48:56.449Z,99.90
2022-12-11T21:51:31.063Z,99.90
2022-12-11T21:54:03.917Z,99.90
2022-12-11T21:56:31.933Z,99.90
2022-12-11T21:58:58.611Z,99.90
2022-12-11T22:01:33.304Z,99.90
2022-12-11T22:04:00.261Z,99.90
2022-12-11T22:06:27.278Z,99.90
2022-12-11T22:08:53.920Z,99.90
2022-12-11T22:11:24.281Z,99.90
2022-12-11T22:13:50.991Z,99.90
2022-12-11T22:16:18.228Z,99.90
2022-12-11T22:18:45.446Z,99.90
2022-12-11T22:21:12.353Z,99.90
2022-12-11T22:23:39.934Z,99.90
2022-12-11T22:26:07.946Z,99.90
2022-12-11T22:28:34.710Z,99.90
2022-12-11T22:31:01.865Z,99.90
2022-12-11T22:33:28.516Z,99.90
2022-12-11T22:35:56.959Z,99.90
2022-12-11T22:38:24.025Z,99.90
2022-12-11T22:40:50.704Z,99.90
2022-12-11T22:43:17.463Z,99.90
2022-12-11T22:45:44.152Z,99.90
2022-12-11T22:48:11.060Z,99.90
2022-12-11T22:50:39.641Z,99.90
2022-12-11T22:53:06.561Z,99.90
2022-12-11T22:55:33.989Z,99.90
2022-12-11T22:58:00.577Z,99.90
2022-12-11T23:00:27.243Z,99.90
2022-12-11T23:02:53.993Z,99.90
2022-12-11T23:05:20.718Z,99.90
2022-12-11T23:07:47.467Z,99.90
2022-12-11T23:10:14.257Z,99.90
2022-12-11T23:12:40.997Z,99.90
2022-12-11T23:15:08.111Z,99.90
2022-12-11T23:17:34.717Z,99.90
2022-12-11T23:20:03.749Z,99.90
2022-12-11T23:22:30.611Z,99.90
2022-12-11T23:24:57.430Z,99.90
2022-12-11T23:27:24.084Z,99.90
2022-12-11T23:29:50.682Z,99.90
2022-12-11T23:32:17.351Z,99.90
2022-12-11T23:34:43.943Z,99.90
2022-12-11T23:37:10.696Z,99.90
2022-12-11T23:39:37.284Z,99.90
2022-12-11T23:42:04.068Z,99.90
2022-12-11T23:44:30.785Z,99.90
2022-12-11T23:46:57.420Z,99.90
2022-12-11T23:49:24.054Z,99.90
2022-12-11T23:51:50.728Z,99.90
2022-12-11T23:54:17.342Z,99.90
2022-12-11T23:56:43.956Z,99.90
2022-12-11T23:59:14.417Z,99.90
